Hlavní strana
METAR-TAF:

METAR-TAF

Letiště :

Ivalo, Finsko

zeměpisná šířka: 68-37N, zeměpisná délka: 027-25E, výška: 147 m

Aktuální stav počasí

Zpráva byla vytvořena před 39 minutami, v 03:50 UTC
Západojihozápadní vítr 1 kt
Teplota -17°C
Vlhkost vzduchu 84%
Tlak 993 hPa
Viditelnost: 8000 m
Skoro jasno ve výšce 300 ft
Zataženo ve výšce 1700 ft
slabé sněžení

METAR: EFIV 160350Z AUTO 25001KT 8000 -SN FEW003 OVC017 M17/M19 Q0993

Čas: 06:29 (04:29 UTC)

Předpověď počasí

Zpráva byla vytvořena před 59 minutami, v 03:30 UTC
Předpověď platná od 16 v 03 UTC do 16 v 12 UTC
Jihozápadní vítr 3 kt
Viditelnost 10 km a více
Zataženo ve výšce 400 ft
Dočasný
od 16 v 03 UTC do 16 v 12 UTC
Viditelnost: 2000 m
Polojasno ve výšce 500 ft
Oblačno až skoro zataženo ve výšce 1500 ft
slabé sněžení

TAF: EFIV 160330Z 1603/1612 22003KT 9999 OVC004 TEMPO 1603/1612 2000 -SN SCT005 BKN015

Stav a předpovědi počasí z více než 4 000 letišť (zprávy METAR a TAF).

Červené a žluté tečky na mapě představují dostupné meteorologické stanice.

Když kurzor umístíte na tečku, zobrazí se název stanice.

Pak kliknutím zobrazíte stav a předpověď počasí.

Chcete-li změnit mapu, kliknutím na zelené tlačítko se znaménkem +mapu přiblížíte, kliknutím na zelené tlačítko se znaménkem – mapu oddálíte a kliknutím na zelené šipky přejdete na sousední mapy.


METAR-TAF: